sensor_id;sensor_type;location;lat;lon;timestamp;temperature;humidity
9403;DHT22;4741;49.834;10.740;2023-11-21T13:15:55;12.60;99.90
9403;DHT22;4741;49.834;10.740;2023-11-21T13:18:27;12.60;99.90
9403;DHT22;4741;49.834;10.740;2023-11-21T13:20:54;12.60;99.90
9403;DHT22;4741;49.834;10.740;2023-11-21T13:23:22;12.60;99.90
9403;DHT22;4741;49.834;10.740;2023-11-21T13:25:49;12.60;99.90
9403;DHT22;4741;49.834;10.740;2023-11-21T13:28:28;12.60;99.90
9403;DHT22;4741;49.834;10.740;2023-11-21T13:30:59;12.90;99.90
9403;DHT22;4741;49.834;10.740;2023-11-21T13:33:30;13.20;99.90
9403;DHT22;4741;49.834;10.740;2023-11-21T13:35:56;13.00;99.90
9403;DHT22;4741;49.834;10.740;2023-11-21T13:38:24;12.80;99.90
9403;DHT22;4741;49.834;10.740;2023-11-21T13:48:18;12.60;99.90
9403;DHT22;4741;49.834;10.740;2023-11-21T13:50:51;12.10;99.90
9403;DHT22;4741;49.834;10.740;2023-11-21T13:53:27;12.10;99.90
9403;DHT22;4741;49.834;10.740;2023-11-21T13:55:54;12.10;99.90
9403;DHT22;4741;49.834;10.740;2023-11-21T13:58:22;12.00;99.90
9403;DHT22;4741;49.834;10.740;2023-11-21T14:00:52;12.00;99.90
9403;DHT22;4741;49.834;10.740;2023-11-21T14:03:23;11.90;99.90
9403;DHT22;4741;49.834;10.740;2023-11-21T14:05:52;11.70;99.90
9403;DHT22;4741;49.834;10.740;2023-11-21T14:08:19;11.70;99.90
9403;DHT22;4741;49.834;10.740;2023-11-21T14:10:47;11.40;99.90
9403;DHT22;4741;49.834;10.740;2023-11-21T14:13:19;11.40;99.90
9403;DHT22;4741;49.834;10.740;2023-11-21T14:15:50;11.10;99.90
9403;DHT22;4741;49.834;10.740;2023-11-21T14:18:27;11.40;99.90
9403;DHT22;4741;49.834;10.740;2023-11-21T14:21:02;11.00;99.90
9403;DHT22;4741;49.834;10.740;2023-11-21T14:23:29;10.80;99.90
9403;DHT22;4741;49.834;10.740;2023-11-21T14:25:56;10.70;99.90
9403;DHT22;4741;49.834;10.740;2023-11-21T14:28:23;10.60;99.90
9403;DHT22;4741;49.834;10.740;2023-11-21T14:30:49;10.50;99.90
9403;DHT22;4741;49.834;10.740;2023-11-21T14:33:16;10.40;99.90
9403;DHT22;4741;49.834;10.740;2023-11-21T14:35:45;10.90;99.90
9403;DHT22;4741;49.834;10.740;2023-11-21T14:38:13;10.70;99.90
9403;DHT22;4741;49.834;10.740;2023-11-21T14:40:41;10.10;99.90
9403;DHT22;4741;49.834;10.740;2023-11-21T14:43:08;10.30;99.90
9403;DHT22;4741;49.834;10.740;2023-11-21T14:45:34;10.00;99.90
9403;DHT22;4741;49.834;10.740;2023-11-21T14:48:01;10.00;99.90
9403;DHT22;4741;49.834;10.740;2023-11-21T14:50:34;9.90;99.90
9403;DHT22;4741;49.834;10.740;2023-11-21T14:53:20;9.80;99.90
9403;DHT22;4741;49.834;10.740;2023-11-21T14:56:06;9.80;99.90
9403;DHT22;4741;49.834;10.740;2023-11-21T14:58:34;9.70;99.90
9403;DHT22;4741;49.834;10.740;2023-11-21T15:01:01;9.60;99.90
9403;DHT22;4741;49.834;10.740;2023-11-21T15:03:28;9.70;99.90
9403;DHT22;4741;49.834;10.740;2023-11-21T15:05:59;9.50;99.90
9403;DHT22;4741;49.834;10.740;2023-11-21T15:08:49;9.50;99.90
9403;DHT22;4741;49.834;10.740;2023-11-21T15:11:22;9.40;99.90
9403;DHT22;4741;49.834;10.740;2023-11-21T15:13:56;9.50;99.90
9403;DHT22;4741;49.834;10.740;2023-11-21T15:16:23;9.50;99.90
9403;DHT22;4741;49.834;10.740;2023-11-21T15:18:52;9.40;99.90
9403;DHT22;4741;49.834;10.740;2023-11-21T15:21:20;9.10;99.90
9403;DHT22;4741;49.834;10.740;2023-11-21T15:23:48;9.30;99.90
9403;DHT22;4741;49.834;10.740;2023-11-21T15:26:15;9.20;99.90
9403;DHT22;4741;49.834;10.740;2023-11-21T15:28:42;9.20;99.90
9403;DHT22;4741;49.834;10.740;2023-11-21T15:31:09;9.10;99.90
9403;DHT22;4741;49.834;10.740;2023-11-21T15:33:35;9.10;99.90
9403;DHT22;4741;49.834;10.740;2023-11-21T15:36:03;9.10;99.90
9403;DHT22;4741;49.834;10.740;2023-11-21T15:38:30;9.00;99.90
9403;DHT22;4741;49.834;10.740;2023-11-21T15:40:57;9.00;99.90
9403;DHT22;4741;49.834;10.740;2023-11-21T15:43:25;9.00;99.90
9403;DHT22;4741;49.834;10.740;2023-11-21T15:45:53;8.90;99.90
9403;DHT22;4741;49.834;10.740;2023-11-21T15:48:19;8.90;99.90
9403;DHT22;4741;49.834;10.740;2023-11-21T15:50:46;8.70;99.90
9403;DHT22;4741;49.834;10.740;2023-11-21T15:53:14;8.60;99.90
9403;DHT22;4741;49.834;10.740;2023-11-21T15:55:42;8.80;99.90
9403;DHT22;4741;49.834;10.740;2023-11-21T15:58:09;8.80;99.90
9403;DHT22;4741;49.834;10.740;2023-11-21T16:00:36;8.80;99.90
9403;DHT22;4741;49.834;10.740;2023-11-21T16:03:03;8.80;99.90
9403;DHT22;4741;49.834;10.740;2023-11-21T16:05:30;8.80;99.90
9403;DHT22;4741;49.834;10.740;2023-11-21T16:07:57;8.80;99.90
9403;DHT22;4741;49.834;10.740;2023-11-21T16:10:24;9.40;99.90
9403;DHT22;4741;49.834;10.740;2023-11-21T16:12:51;8.70;99.90
9403;DHT22;4741;49.834;10.740;2023-11-21T16:15:17;8.40;99.90
9403;DHT22;4741;49.834;10.740;2023-11-21T16:17:45;8.70;99.90
9403;DHT22;4741;49.834;10.740;2023-11-21T16:20:12;8.50;99.90
9403;DHT22;4741;49.834;10.740;2023-11-21T16:22:41;8.20;99.90
9403;DHT22;4741;49.834;10.740;2023-11-21T16:25:08;8.30;99.90
9403;DHT22;4741;49.834;10.740;2023-11-21T16:27:39;8.50;99.90
9403;DHT22;4741;49.834;10.740;2023-11-21T16:30:07;8.70;99.90
9403;DHT22;4741;49.834;10.740;2023-11-21T16:32:35;8.50;99.90
9403;DHT22;4741;49.834;10.740;2023-11-21T16:35:03;8.30;99.90
9403;DHT22;4741;49.834;10.740;2023-11-21T16:37:30;8.60;99.90
9403;DHT22;4741;49.834;10.740;2023-11-21T16:39:58;8.20;99.90
9403;DHT22;4741;49.834;10.740;2023-11-21T16:42:25;8.50;99.90
9403;DHT22;4741;49.834;10.740;2023-11-21T16:47:22;8.50;99.90
9403;DHT22;4741;49.834;10.740;2023-11-21T16:52:18;8.40;99.90
9403;DHT22;4741;49.834;10.740;2023-11-21T17:02:11;8.70;99.90
9403;DHT22;4741;49.834;10.740;2023-11-21T17:04:40;8.00;99.90
9403;DHT22;4741;49.834;10.740;2023-11-21T17:07:09;8.00;99.90
9403;DHT22;4741;49.834;10.740;2023-11-21T17:14:32;8.10;99.90
9403;DHT22;4741;49.834;10.740;2023-11-21T17:19:26;8.20;99.90
9403;DHT22;4741;49.834;10.740;2023-11-21T17:21:58;8.00;99.90
9403;DHT22;4741;49.834;10.740;2023-11-21T17:24:24;7.80;99.90
9403;DHT22;4741;49.834;10.740;2023-11-21T17:26:51;8.00;99.90
9403;DHT22;4741;49.834;10.740;2023-11-21T17:29:19;7.90;99.90
9403;DHT22;4741;49.834;10.740;2023-11-21T17:31:46;7.80;99.90
9403;DHT22;4741;49.834;10.740;2023-11-21T17:34:14;8.00;99.90
9403;DHT22;4741;49.834;10.740;2023-11-21T17:39:12;7.80;99.90
9403;DHT22;4741;49.834;10.740;2023-11-21T17:41:39;8.00;99.90
9403;DHT22;4741;49.834;10.740;2023-11-21T17:44:08;7.80;99.90
9403;DHT22;4741;49.834;10.740;2023-11-21T17:46:34;7.80;99.90
9403;DHT22;4741;49.834;10.740;2023-11-21T17:49:02;7.70;99.90
9403;DHT22;4741;49.834;10.740;2023-11-21T17:51:29;7.70;99.90
9403;DHT22;4741;49.834;10.740;2023-11-21T17:53:56;7.80;99.90
9403;DHT22;4741;49.834;10.740;2023-11-21T17:56:27;7.70;99.90
9403;DHT22;4741;49.834;10.740;2023-11-21T17:58:55;7.80;99.90
9403;DHT22;4741;49.834;10.740;2023-11-21T18:01:23;7.80;99.90
9403;DHT22;4741;49.834;10.740;2023-11-21T18:03:53;7.80;99.90
9403;DHT22;4741;49.834;10.740;2023-11-21T18:06:21;7.80;99.90
9403;DHT22;4741;49.834;10.740;2023-11-21T18:08:48;8.30;99.90
9403;DHT22;4741;49.834;10.740;2023-11-21T18:11:15;7.80;99.90
9403;DHT22;4741;49.834;10.740;2023-11-21T18:13:42;8.10;99.90
9403;DHT22;4741;49.834;10.740;2023-11-21T18:16:09;7.90;99.90
9403;DHT22;4741;49.834;10.740;2023-11-21T18:18:36;7.90;99.90
9403;DHT22;4741;49.834;10.740;2023-11-21T18:21:03;7.90;99.90
9403;DHT22;4741;49.834;10.740;2023-11-21T18:23:29;8.00;99.90
9403;DHT22;4741;49.834;10.740;2023-11-21T18:25:56;8.00;99.90
9403;DHT22;4741;49.834;10.740;2023-11-21T18:28:23;8.00;99.90
9403;DHT22;4741;49.834;10.740;2023-11-21T18:30:49;8.00;99.90
9403;DHT22;4741;49.834;10.740;2023-11-21T18:33:16;8.00;99.90
9403;DHT22;4741;49.834;10.740;2023-11-21T18:35:46;7.90;99.90
9403;DHT22;4741;49.834;10.740;2023-11-21T18:38:12;7.80;99.90
9403;DHT22;4741;49.834;10.740;2023-11-21T18:40:39;7.70;99.90
9403;DHT22;4741;49.834;10.740;2023-11-21T18:43:06;7.70;99.90
9403;DHT22;4741;49.834;10.740;2023-11-21T18:45:33;7.60;99.90
9403;DHT22;4741;49.834;10.740;2023-11-21T18:48:01;7.50;99.90
9403;DHT22;4741;49.834;10.740;2023-11-21T18:50:27;8.30;99.90
9403;DHT22;4741;49.834;10.740;2023-11-21T18:52:54;7.40;99.90
9403;DHT22;4741;49.834;10.740;2023-11-21T18:55:21;7.40;99.90
9403;DHT22;4741;49.834;10.740;2023-11-21T18:57:48;7.30;99.90
9403;DHT22;4741;49.834;10.740;2023-11-21T19:00:14;7.30;99.90
9403;DHT22;4741;49.834;10.740;2023-11-21T19:02:48;7.20;99.90
9403;DHT22;4741;49.834;10.740;2023-11-21T19:05:15;7.10;99.90
9403;DHT22;4741;49.834;10.740;2023-11-21T19:07:42;7.50;99.90
9403;DHT22;4741;49.834;10.740;2023-11-21T19:10:09;7.00;99.90
9403;DHT22;4741;49.834;10.740;2023-11-21T19:12:36;7.00;99.90
9403;DHT22;4741;49.834;10.740;2023-11-21T19:15:06;6.80;99.90
9403;DHT22;4741;49.834;10.740;2023-11-21T19:20:02;6.90;99.90
9403;DHT22;4741;49.834;10.740;2023-11-21T19:22:29;6.90;99.90
9403;DHT22;4741;49.834;10.740;2023-11-21T19:24:56;6.60;99.90
9403;DHT22;4741;49.834;10.740;2023-11-21T19:27:22;6.80;99.90
9403;DHT22;4741;49.834;10.740;2023-11-21T19:29:50;7.30;99.90
9403;DHT22;4741;49.834;10.740;2023-11-21T19:32:16;6.60;99.90
9403;DHT22;4741;49.834;10.740;2023-11-21T19:37:10;6.60;99.90
9403;DHT22;4741;49.834;10.740;2023-11-21T19:39:37;6.50;99.90
9403;DHT22;4741;49.834;10.740;2023-11-21T19:44:31;7.00;99.90
9403;DHT22;4741;49.834;10.740;2023-11-21T19:46:58;6.30;99.90
9403;DHT22;4741;49.834;10.740;2023-11-21T20:06:38;6.00;99.90
9403;DHT22;4741;49.834;10.740;2023-11-21T20:09:14;6.00;99.90
9403;DHT22;4741;49.834;10.740;2023-11-21T20:11:41;6.00;99.90
9403;DHT22;4741;49.834;10.740;2023-11-21T20:14:07;5.90;99.90
9403;DHT22;4741;49.834;10.740;2023-11-21T20:16:38;6.00;99.90
9403;DHT22;4741;49.834;10.740;2023-11-21T20:19:05;5.90;99.90
9403;DHT22;4741;49.834;10.740;2023-11-21T20:21:34;5.50;99.90
9403;DHT22;4741;49.834;10.740;2023-11-21T20:24:00;5.90;99.90
9403;DHT22;4741;49.834;10.740;2023-11-21T20:26:28;5.80;99.90
9403;DHT22;4741;49.834;10.740;2023-11-21T20:28:54;5.90;99.90
9403;DHT22;4741;49.834;10.740;2023-11-21T20:31:22;5.90;99.90
9403;DHT22;4741;49.834;10.740;2023-11-21T20:33:50;6.00;99.90
9403;DHT22;4741;49.834;10.740;2023-11-21T20:36:17;5.90;99.90
9403;DHT22;4741;49.834;10.740;2023-11-21T20:38:44;6.00;99.90
9403;DHT22;4741;49.834;10.740;2023-11-21T20:41:11;6.00;99.90
9403;DHT22;4741;49.834;10.740;2023-11-21T20:43:39;5.80;99.90
9403;DHT22;4741;49.834;10.740;2023-11-21T20:46:06;5.80;99.90
9403;DHT22;4741;49.834;10.740;2023-11-21T20:48:33;5.60;99.90
9403;DHT22;4741;49.834;10.740;2023-11-21T20:51:00;5.80;99.90
9403;DHT22;4741;49.834;10.740;2023-11-21T20:53:27;5.80;99.90
9403;DHT22;4741;49.834;10.740;2023-11-21T20:55:53;5.60;99.90
9403;DHT22;4741;49.834;10.740;2023-11-21T20:58:20;5.60;99.90
9403;DHT22;4741;49.834;10.740;2023-11-21T21:00:47;5.70;99.90
9403;DHT22;4741;49.834;10.740;2023-11-21T21:03:13;5.70;99.90
9403;DHT22;4741;49.834;10.740;2023-11-21T21:05:41;5.70;99.90
9403;DHT22;4741;49.834;10.740;2023-11-21T21:08:08;5.90;99.90
9403;DHT22;4741;49.834;10.740;2023-11-21T21:10:35;5.80;99.90
9403;DHT22;4741;49.834;10.740;2023-11-21T21:13:02;5.50;99.90
9403;DHT22;4741;49.834;10.740;2023-11-21T21:15:28;5.60;99.90
9403;DHT22;4741;49.834;10.740;2023-11-21T21:17:55;5.50;99.90
9403;DHT22;4741;49.834;10.740;2023-11-21T21:20:24;5.40;99.90
9403;DHT22;4741;49.834;10.740;2023-11-21T21:22:50;5.50;99.90
9403;DHT22;4741;49.834;10.740;2023-11-21T21:25:19;5.60;99.90
9403;DHT22;4741;49.834;10.740;2023-11-21T21:27:46;5.40;99.90
9403;DHT22;4741;49.834;10.740;2023-11-21T21:30:14;5.50;99.90
9403;DHT22;4741;49.834;10.740;2023-11-21T21:32:41;5.50;99.90
9403;DHT22;4741;49.834;10.740;2023-11-21T21:35:08;5.40;99.90
9403;DHT22;4741;49.834;10.740;2023-11-21T21:37:35;5.50;99.90
9403;DHT22;4741;49.834;10.740;2023-11-21T21:40:02;5.50;99.90
9403;DHT22;4741;49.834;10.740;2023-11-21T21:44:56;5.30;99.90
9403;DHT22;4741;49.834;10.740;2023-11-21T21:47:23;5.30;99.90
9403;DHT22;4741;49.834;10.740;2023-11-21T21:49:50;5.40;99.90
9403;DHT22;4741;49.834;10.740;2023-11-21T21:52:17;5.40;99.90
9403;DHT22;4741;49.834;10.740;2023-11-21T21:54:43;5.40;99.90
9403;DHT22;4741;49.834;10.740;2023-11-21T21:57:10;5.40;99.90
9403;DHT22;4741;49.834;10.740;2023-11-21T21:59:36;5.40;99.90
9403;DHT22;4741;49.834;10.740;2023-11-21T22:02:04;5.30;99.90
9403;DHT22;4741;49.834;10.740;2023-11-21T22:04:32;5.30;99.90
9403;DHT22;4741;49.834;10.740;2023-11-21T22:07:00;5.20;99.90
9403;DHT22;4741;49.834;10.740;2023-11-21T22:09:27;5.10;99.90
9403;DHT22;4741;49.834;10.740;2023-11-21T22:11:54;5.10;99.90
9403;DHT22;4741;49.834;10.740;2023-11-21T22:14:22;5.10;99.90
9403;DHT22;4741;49.834;10.740;2023-11-21T22:16:49;4.90;99.90
9403;DHT22;4741;49.834;10.740;2023-11-21T22:19:16;5.00;99.90
9403;DHT22;4741;49.834;10.740;2023-11-21T22:24:09;4.90;99.90
9403;DHT22;4741;49.834;10.740;2023-11-21T22:26:36;4.90;99.90
9403;DHT22;4741;49.834;10.740;2023-11-21T22:29:03;4.90;99.90
9403;DHT22;4741;49.834;10.740;2023-11-21T22:31:30;4.30;99.90
9403;DHT22;4741;49.834;10.740;2023-11-21T22:33:57;4.70;99.90
9403;DHT22;4741;49.834;10.740;2023-11-21T22:36:24;4.60;99.90
9403;DHT22;4741;49.834;10.740;2023-11-21T22:38:51;4.00;99.90
9403;DHT22;4741;49.834;10.740;2023-11-21T22:41:24;4.80;99.90
9403;DHT22;4741;49.834;10.740;2023-11-21T22:43:52;4.80;99.90
9403;DHT22;4741;49.834;10.740;2023-11-21T22:46:19;4.70;99.90
9403;DHT22;4741;49.834;10.740;2023-11-21T22:48:46;4.60;99.90
9403;DHT22;4741;49.834;10.740;2023-11-21T22:51:14;4.60;99.90
9403;DHT22;4741;49.834;10.740;2023-11-21T22:56:10;4.60;99.90
9403;DHT22;4741;49.834;10.740;2023-11-21T22:58:37;4.60;99.90
9403;DHT22;4741;49.834;10.740;2023-11-21T23:01:04;4.50;99.90
9403;DHT22;4741;49.834;10.740;2023-11-21T23:03:32;4.40;99.90
9403;DHT22;4741;49.834;10.740;2023-11-21T23:05:58;4.40;99.90
9403;DHT22;4741;49.834;10.740;2023-11-21T23:08:25;4.30;99.90
9403;DHT22;4741;49.834;10.740;2023-11-21T23:10:52;4.20;99.90
9403;DHT22;4741;49.834;10.740;2023-11-21T23:15:47;4.10;99.90
9403;DHT22;4741;49.834;10.740;2023-11-21T23:18:16;4.20;99.90
9403;DHT22;4741;49.834;10.740;2023-11-21T23:20:42;4.10;99.90
9403;DHT22;4741;49.834;10.740;2023-11-21T23:23:09;4.10;99.90
9403;DHT22;4741;49.834;10.740;2023-11-21T23:25:37;4.00;99.90
9403;DHT22;4741;49.834;10.740;2023-11-21T23:30:31;3.90;99.90
9403;DHT22;4741;49.834;10.740;2023-11-21T23:32:57;3.90;99.90
9403;DHT22;4741;49.834;10.740;2023-11-21T23:35:24;3.70;99.90
9403;DHT22;4741;49.834;10.740;2023-11-21T23:37:51;3.70;99.90
9403;DHT22;4741;49.834;10.740;2023-11-21T23:40:18;3.70;99.90
9403;DHT22;4741;49.834;10.740;2023-11-21T23:42:45;3.80;99.90
9403;DHT22;4741;49.834;10.740;2023-11-21T23:45:11;3.80;99.90
9403;DHT22;4741;49.834;10.740;2023-11-21T23:47:38;3.80;99.90
9403;DHT22;4741;49.834;10.740;2023-11-21T23:50:05;3.80;99.90
9403;DHT22;4741;49.834;10.740;2023-11-21T23:52:33;3.90;99.90
9403;DHT22;4741;49.834;10.740;2023-11-21T23:55:04;3.80;99.90
9403;DHT22;4741;49.834;10.740;2023-11-21T23:57:31;3.80;99.90
9403;DHT22;4741;49.834;10.740;2023-11-21T23:59:57;3.80;99.90
